Portada
METAR-TAF:

METAR-TAF

Aeroports :

Bric della Croce

Torí, Itàlia

latitud: 45-02N, longitud: 007-44E, altitud: 709 m

Observació

L'informe es va fer fa 1 hora i 7 minuts, a les 21:55 UTC
Vent calma
Temperatura 3°C
Humitat 60%
Pressió 1020 hPa
Visibilitat 10 km o més
sense núvols per sota de 1500 mi sense presència de cumulonimbus.

METAR: LIMK 062155Z 00000KT CAVOK 03/M04 Q1020 RMK FEW FEW130 VAL NIL VIS MIN 9999

Hora: 00:02 (23:02 UTC)


TAF: manca

Observacions i pronòstics meteorològics de més de 4000 aeroports (METAR i TAF).

Les estacions disponibles són els punts grocs i vermells al mapa.

Posi el ratolí al punt desitjat per veure el nom de l'estació.

Feu clic per veure les observacions i els pronòstics meteorològics.

Per canviar el mapa: feu clic els botons verds amb una creu de color negre per apropar; al botó verd amb un guió per allunyar la imatge; o en les fletxes verdes per a mapes adjacents.


METAR-TAF: